UAL85 KCMH-KDCA
Flight info
| Callsign | UAL85 |
|---|---|
| Flight time | N/A |
| Altitude | 35000 |
| Route | OWEBO AIR BUCKO FRDMM6 |
| Aircraft | B772/H-SDE2E3FGHIJ5LORVWXY/LB1D1 |
Departure
| Time | 2026-05-08 21:57 |
|---|---|
| Airport | John Glenn Columbus International Airport (KCMH) |
Arrival
| Time | N/A |
|---|---|
| Airport | Ronald Reagan Washington National Airport (KDCA) |
| Time | Latitude | Longitude | Altitude | Speed | Heading |
|---|---|---|---|---|---|
| 2026-05-08 21:47 | 39.99754 | -82.87994 | 821 ft | 0 kts | 275° |
| 2026-05-08 21:50 | 39.99753 | -82.87987 | 821 ft | 2 kts | 275° |
| 2026-05-08 21:51 | 39.99752 | -82.87968 | 821 ft | 2 kts | 275° |
| 2026-05-08 21:51 | 39.99751 | -82.87949 | 821 ft | 2 kts | 275° |
| 2026-05-08 21:51 | 39.99750 | -82.87936 | 821 ft | 1 kts | 275° |
| 2026-05-08 21:51 | 39.99752 | -82.87917 | 821 ft | 2 kts | 239° |
| 2026-05-08 21:52 | 39.99762 | -82.87904 | 821 ft | 2 kts | 206° |
| 2026-05-08 21:52 | 39.99771 | -82.87899 | 821 ft | 0 kts | 184° |
| 2026-05-08 21:52 | 39.99776 | -82.87899 | 821 ft | 0 kts | 184° |
| 2026-05-08 21:53 | 39.99773 | -82.87899 | 821 ft | 1 kts | 184° |
| 2026-05-08 21:53 | 39.99748 | -82.87901 | 821 ft | 5 kts | 184° |
| 2026-05-08 21:54 | 39.99692 | -82.87907 | 821 ft | 9 kts | 186° |
| 2026-05-08 21:54 | 39.99612 | -82.87910 | 821 ft | 10 kts | 153° |
| 2026-05-08 21:54 | 39.99586 | -82.87812 | 821 ft | 13 kts | 97° |
| 2026-05-08 21:54 | 39.99567 | -82.87673 | 821 ft | 17 kts | 94° |
| 2026-05-08 21:55 | 39.99559 | -82.87501 | 821 ft | 20 kts | 94° |
| 2026-05-08 21:55 | 39.99546 | -82.87315 | 821 ft | 12 kts | 119° |
| 2026-05-08 21:55 | 39.99461 | -82.87296 | 821 ft | 13 kts | 183° |
| 2026-05-08 21:56 | 39.99228 | -82.87327 | 821 ft | 19 kts | 184° |
| 2026-05-08 21:56 | 39.99168 | -82.87349 | 821 ft | 6 kts | 246° |
| 2026-05-08 21:56 | 39.99166 | -82.87369 | 821 ft | 1 kts | 274° |
| 2026-05-08 21:56 | 39.99176 | -82.87563 | 821 ft | 69 kts | 274° |
| 2026-05-08 21:57 | 39.99236 | -82.88645 | 997 ft | 157 kts | 271° |
| 2026-05-08 21:57 | 39.99297 | -82.90042 | 2134 ft | 162 kts | 270° |
| 2026-05-08 21:57 | 39.99347 | -82.91418 | 3156 ft | 155 kts | 267° |
| 2026-05-08 21:57 | 39.99437 | -82.92882 | 3768 ft | 174 kts | 277° |
| 2026-05-08 21:58 | 40.00043 | -82.94318 | 4440 ft | 199 kts | 310° |
| 2026-05-08 21:58 | 40.01386 | -82.95055 | 5106 ft | 234 kts | 353° |
| 2026-05-08 21:58 | 40.03029 | -82.94454 | 5859 ft | 264 kts | 31° |
| 2026-05-08 21:58 | 40.04233 | -82.92592 | 6610 ft | 285 kts | 66° |
| 2026-05-08 21:59 | 40.04664 | -82.90008 | 7341 ft | 302 kts | 87° |
| 2026-05-08 21:59 | 40.04773 | -82.87242 | 8336 ft | 311 kts | 89° |
| 2026-05-08 21:59 | 40.04860 | -82.84409 | 9373 ft | 317 kts | 88° |
| 2026-05-08 21:59 | 40.04946 | -82.81532 | 10416 ft | 323 kts | 88° |
| 2026-05-08 22:00 | 40.05033 | -82.78577 | 11146 ft | 339 kts | 88° |
| 2026-05-08 22:00 | 40.05127 | -82.75407 | 11859 ft | 356 kts | 87° |
| 2026-05-08 22:00 | 40.05223 | -82.72134 | 12530 ft | 373 kts | 86° |
| 2026-05-08 22:00 | 40.05323 | -82.68684 | 13222 ft | 389 kts | 86° |
| 2026-05-08 22:01 | 40.05425 | -82.65140 | 14055 ft | 399 kts | 86° |
| 2026-05-08 22:01 | 40.05529 | -82.61491 | 14976 ft | 407 kts | 86° |
| 2026-05-08 22:01 | 40.05633 | -82.57782 | 15804 ft | 416 kts | 86° |
| 2026-05-08 22:01 | 40.05739 | -82.53977 | 16696 ft | 423 kts | 86° |
| 2026-05-08 22:02 | 40.05845 | -82.50133 | 17513 ft | 431 kts | 86° |
| 2026-05-08 22:02 | 40.05952 | -82.46190 | 18323 ft | 439 kts | 86° |
| 2026-05-08 22:02 | 40.06059 | -82.42208 | 19168 ft | 446 kts | 86° |
| 2026-05-08 22:02 | 40.06165 | -82.38197 | 20105 ft | 450 kts | 86° |
| 2026-05-08 22:03 | 40.06272 | -82.34100 | 20901 ft | 458 kts | 87° |
| 2026-05-08 22:03 | 40.06381 | -82.29879 | 21601 ft | 467 kts | 87° |
| 2026-05-08 22:03 | 40.06489 | -82.25627 | 22326 ft | 474 kts | 87° |
| 2026-05-08 22:03 | 40.06596 | -82.21305 | 23041 ft | 481 kts | 87° |
| 2026-05-08 22:04 | 40.06704 | -82.16933 | 23827 ft | 486 kts | 87° |
| 2026-05-08 22:04 | 40.06810 | -82.12538 | 24497 ft | 493 kts | 87° |
| 2026-05-08 22:04 | 40.06917 | -82.08064 | 25140 ft | 500 kts | 87° |
| 2026-05-08 22:04 | 40.07024 | -82.03496 | 25839 ft | 506 kts | 87° |
| 2026-05-08 22:05 | 40.07129 | -81.98917 | 26458 ft | 512 kts | 87° |
| 2026-05-08 22:05 | 40.07235 | -81.94222 | 27112 ft | 518 kts | 88° |
| 2026-05-08 22:05 | 40.07339 | -81.89495 | 27733 ft | 524 kts | 87° |
| 2026-05-08 22:05 | 40.07444 | -81.84701 | 28348 ft | 530 kts | 87° |
| 2026-05-08 22:06 | 40.07547 | -81.79870 | 28988 ft | 534 kts | 88° |
| 2026-05-08 22:06 | 40.07648 | -81.74984 | 29732 ft | 536 kts | 88° |
| 2026-05-08 22:06 | 40.07644 | -81.70159 | 30500 ft | 536 kts | 93° |
| 2026-05-08 22:06 | 40.07377 | -81.65341 | 31176 ft | 537 kts | 95° |
| 2026-05-08 22:07 | 40.07065 | -81.60465 | 31711 ft | 542 kts | 95° |
| 2026-05-08 22:07 | 40.06744 | -81.55549 | 32234 ft | 546 kts | 95° |
| 2026-05-08 22:07 | 40.06420 | -81.50594 | 32821 ft | 549 kts | 95° |
| 2026-05-08 22:07 | 40.06092 | -81.45628 | 33480 ft | 550 kts | 95° |
| 2026-05-08 22:08 | 40.05768 | -81.40731 | 34100 ft | 551 kts | 96° |
| 2026-05-08 22:08 | 40.05434 | -81.35718 | 34622 ft | 554 kts | 96° |
| 2026-05-08 22:08 | 40.05101 | -81.30746 | 34851 ft | 556 kts | 97° |
| 2026-05-08 22:09 | 40.04423 | -81.20731 | 34885 ft | 554 kts | 96° |
| 2026-05-08 22:09 | 40.03739 | -81.10742 | 34885 ft | 554 kts | 96° |
| 2026-05-08 22:10 | 40.03046 | -81.00754 | 34892 ft | 553 kts | 96° |
| 2026-05-08 22:10 | 40.02209 | -80.90792 | 34898 ft | 553 kts | 104° |
| 2026-05-08 22:11 | 39.99777 | -80.81464 | 34904 ft | 542 kts | 123° |
| 2026-05-08 22:11 | 39.97871 | -80.77244 | 34903 ft | 531 kts | 132° |
| 2026-05-08 22:11 | 39.95625 | -80.73506 | 34903 ft | 522 kts | 140° |
| 2026-05-08 22:12 | 39.90741 | -80.66578 | 34922 ft | 520 kts | 142° |
| 2026-05-08 22:12 | 39.85820 | -80.59708 | 34925 ft | 518 kts | 142° |
| 2026-05-08 22:13 | 39.80867 | -80.52836 | 34927 ft | 520 kts | 142° |
| 2026-05-08 22:13 | 39.75918 | -80.45991 | 34932 ft | 518 kts | 142° |
| 2026-05-08 22:14 | 39.71016 | -80.39235 | 34933 ft | 518 kts | 142° |
| 2026-05-08 22:14 | 39.66062 | -80.32427 | 34918 ft | 519 kts | 143° |
| 2026-05-08 22:15 | 39.61112 | -80.25636 | 34920 ft | 516 kts | 143° |
| 2026-05-08 22:15 | 39.56149 | -80.18850 | 34927 ft | 518 kts | 143° |
| 2026-05-08 22:15 | 39.53672 | -80.15472 | 34575 ft | 524 kts | 143° |
| 2026-05-08 22:16 | 39.51168 | -80.12058 | 34023 ft | 524 kts | 142° |
| 2026-05-08 22:16 | 39.48655 | -80.08632 | 33402 ft | 521 kts | 142° |
| 2026-05-08 22:16 | 39.46188 | -80.05271 | 32779 ft | 518 kts | 142° |
| 2026-05-08 22:16 | 39.43719 | -80.01914 | 32165 ft | 516 kts | 142° |
| 2026-05-08 22:17 | 39.41260 | -79.98575 | 31538 ft | 516 kts | 141° |
| 2026-05-08 22:17 | 39.38787 | -79.95222 | 31029 ft | 515 kts | 141° |
| 2026-05-08 22:17 | 39.36321 | -79.91879 | 30937 ft | 515 kts | 141° |
| 2026-05-08 22:18 | 39.31766 | -79.84537 | 30921 ft | 528 kts | 125° |
| 2026-05-08 22:18 | 39.28915 | -79.75765 | 30928 ft | 541 kts | 106° |
| 2026-05-08 22:19 | 39.27867 | -79.66145 | 30931 ft | 542 kts | 95° |
| 2026-05-08 22:19 | 39.27191 | -79.56509 | 30944 ft | 544 kts | 95° |
| 2026-05-08 22:20 | 39.26466 | -79.46820 | 30931 ft | 543 kts | 95° |
| 2026-05-08 22:20 | 39.26087 | -79.41942 | 30742 ft | 546 kts | 96° |
| 2026-05-08 22:20 | 39.25706 | -79.37116 | 30503 ft | 543 kts | 95° |
| 2026-05-08 22:20 | 39.25322 | -79.32324 | 30204 ft | 542 kts | 96° |
| 2026-05-08 22:21 | 39.24924 | -79.27425 | 29549 ft | 546 kts | 96° |
| 2026-05-08 22:21 | 39.24531 | -79.22629 | 28895 ft | 543 kts | 96° |
| 2026-05-08 22:21 | 39.24126 | -79.17779 | 28229 ft | 540 kts | 96° |
| 2026-05-08 22:21 | 39.23725 | -79.13025 | 27571 ft | 537 kts | 96° |
| 2026-05-08 22:22 | 39.23315 | -79.08200 | 26899 ft | 539 kts | 96° |
| 2026-05-08 22:22 | 39.22909 | -79.03453 | 26244 ft | 539 kts | 96° |
| 2026-05-08 22:22 | 39.22499 | -78.98688 | 25591 ft | 534 kts | 96° |
| 2026-05-08 22:22 | 39.22081 | -78.93936 | 24933 ft | 527 kts | 97° |
| 2026-05-08 22:23 | 39.21638 | -78.89304 | 24279 ft | 520 kts | 97° |
| 2026-05-08 22:23 | 39.21191 | -78.84717 | 23593 ft | 515 kts | 96° |
| 2026-05-08 22:23 | 39.20747 | -78.80166 | 22741 ft | 501 kts | 96° |
| 2026-05-08 22:23 | 39.20326 | -78.75867 | 22065 ft | 480 kts | 96° |
| 2026-05-08 22:24 | 39.19917 | -78.71693 | 21505 ft | 458 kts | 96° |
| 2026-05-08 22:24 | 39.19523 | -78.67692 | 20925 ft | 441 kts | 96° |
| 2026-05-08 22:24 | 39.19142 | -78.63837 | 20119 ft | 432 kts | 96° |
| 2026-05-08 22:24 | 39.18768 | -78.60056 | 19206 ft | 426 kts | 96° |
| 2026-05-08 22:25 | 39.18398 | -78.56326 | 18621 ft | 421 kts | 96° |
| 2026-05-08 22:25 | 39.18023 | -78.52557 | 18312 ft | 421 kts | 96° |
| 2026-05-08 22:25 | 39.17654 | -78.48862 | 17988 ft | 421 kts | 96° |
| 2026-05-08 22:25 | 39.17278 | -78.45105 | 17632 ft | 418 kts | 96° |
| 2026-05-08 22:26 | 39.16910 | -78.41436 | 17271 ft | 413 kts | 96° |
| 2026-05-08 22:26 | 39.16527 | -78.37784 | 16915 ft | 409 kts | 98° |
| 2026-05-08 22:26 | 39.15831 | -78.34256 | 16551 ft | 407 kts | 107° |
| 2026-05-08 22:26 | 39.14986 | -78.30803 | 16170 ft | 402 kts | 108° |
| 2026-05-08 22:27 | 39.14151 | -78.27434 | 15841 ft | 398 kts | 108° |
| 2026-05-08 22:27 | 39.13305 | -78.24030 | 15475 ft | 395 kts | 108° |
| 2026-05-08 22:27 | 39.12473 | -78.20687 | 15153 ft | 391 kts | 108° |
| 2026-05-08 22:27 | 39.11648 | -78.17376 | 14821 ft | 390 kts | 108° |
| 2026-05-08 22:28 | 39.10822 | -78.14065 | 14489 ft | 387 kts | 107° |
| 2026-05-08 22:28 | 39.10007 | -78.10802 | 14161 ft | 384 kts | 107° |
| 2026-05-08 22:28 | 39.09178 | -78.07540 | 13823 ft | 381 kts | 108° |
| 2026-05-08 22:28 | 39.08347 | -78.04288 | 13498 ft | 378 kts | 108° |
| 2026-05-08 22:29 | 39.07534 | -78.01110 | 13193 ft | 375 kts | 108° |
| 2026-05-08 22:29 | 39.06726 | -77.97955 | 12865 ft | 371 kts | 108° |
| 2026-05-08 22:29 | 39.05921 | -77.94813 | 12551 ft | 364 kts | 108° |
| 2026-05-08 22:29 | 39.05138 | -77.91763 | 12248 ft | 357 kts | 108° |
| 2026-05-08 22:30 | 39.04369 | -77.88763 | 11916 ft | 351 kts | 109° |
| 2026-05-08 22:30 | 39.03601 | -77.85780 | 11591 ft | 344 kts | 109° |
| 2026-05-08 22:30 | 39.02862 | -77.82909 | 11228 ft | 331 kts | 109° |
| 2026-05-08 22:30 | 39.02170 | -77.80219 | 11231 ft | 312 kts | 109° |
| 2026-05-08 22:31 | 39.01498 | -77.77616 | 11174 ft | 301 kts | 109° |
| 2026-05-08 22:31 | 39.00819 | -77.74991 | 10992 ft | 316 kts | 109° |
| 2026-05-08 22:31 | 39.00120 | -77.72289 | 10643 ft | 318 kts | 109° |
| 2026-05-08 22:31 | 38.99417 | -77.69569 | 10256 ft | 317 kts | 109° |
| 2026-05-08 22:32 | 38.98739 | -77.66951 | 9970 ft | 304 kts | 110° |
| 2026-05-08 22:32 | 38.98074 | -77.64413 | 9751 ft | 298 kts | 111° |
| 2026-05-08 22:32 | 38.97334 | -77.61914 | 9376 ft | 299 kts | 113° |
| 2026-05-08 22:32 | 38.96590 | -77.59444 | 9019 ft | 299 kts | 112° |
| 2026-05-08 22:33 | 38.95849 | -77.56959 | 8679 ft | 298 kts | 112° |
| 2026-05-08 22:33 | 38.95114 | -77.54478 | 8341 ft | 297 kts | 111° |
| 2026-05-08 22:33 | 38.94746 | -77.51862 | 8026 ft | 296 kts | 86° |
| 2026-05-08 22:33 | 38.95190 | -77.49325 | 7991 ft | 290 kts | 69° |
| 2026-05-08 22:34 | 38.95911 | -77.46909 | 7946 ft | 288 kts | 65° |
| 2026-05-08 22:34 | 38.96682 | -77.44559 | 7532 ft | 284 kts | 65° |